Time;durP1;ratioP1;P1;durP2;ratioP2;P2;SDS_P1;SDS_P2;PMS_P1;PMS_P2;Temp;Humidity;BMP_temperature;BMP_pressure;BME280_temperature;BME280_humidity;BME280_pressure;Samples;Min_cycle;Max_cycle;Signal;HPM_P1;HPM_P2
2022/07/05 00:02:15;;;;;;;4.43;2.45;;;17.20;99.90;;;;;;5065483;28;20060;-68
2022/07/05 00:04:41;;;;;;;2.63;2.25;;;17.10;99.90;;;;;;5082391;28;20049;-68
2022/07/05 00:07:19;;;;;;;3.15;2.42;;;17.10;99.90;;;;;;5082348;28;20029;-68
2022/07/05 00:09:54;;;;;;;4.55;2.20;;;17.00;99.90;;;;;;5064995;28;20494;-68
2022/07/05 00:12:24;;;;;;;4.53;2.30;;;17.00;99.90;;;;;;5082510;28;20297;-69
2022/07/05 00:14:50;;;;;;;5.95;2.58;;;17.00;99.90;;;;;;5082196;28;20028;-68
2022/07/05 00:17:17;;;;;;;3.22;2.22;;;17.00;99.90;;;;;;5065162;28;20033;-69
2022/07/05 00:19:42;;;;;;;3.15;2.33;;;16.90;99.90;;;;;;5047933;28;20032;-69
2022/07/05 00:22:08;;;;;;;3.22;2.58;;;16.90;99.90;;;;;;5081807;28;20028;-68
2022/07/05 00:24:34;;;;;;;5.20;2.50;;;16.90;99.90;;;;;;5064764;28;20098;-69
2022/07/05 00:27:02;;;;;;;4.93;2.20;;;16.90;99.90;;;;;;5081686;28;20045;-69
2022/07/05 00:29:27;;;;;;;5.00;2.85;;;16.80;99.90;;;;;;5082556;28;20025;-69
2022/07/05 00:31:53;;;;;;;3.80;2.50;;;16.90;99.90;;;;;;5082648;28;20458;-69
2022/07/05 00:34:19;;;;;;;4.90;2.25;;;16.90;99.90;;;;;;5064852;28;20040;-68
2022/07/05 00:36:45;;;;;;;5.78;2.75;;;16.90;99.90;;;;;;5081891;28;20036;-68
2022/07/05 00:39:11;;;;;;;4.43;2.65;;;16.90;99.90;;;;;;5081420;28;20024;-70
2022/07/05 00:41:37;;;;;;;5.40;3.28;;;16.90;99.90;;;;;;5082394;28;20041;-68
2022/07/05 00:44:06;;;;;;;5.45;3.88;;;16.80;99.90;;;;;;5081903;28;20044;-68
2022/07/05 00:46:32;;;;;;;9.90;4.78;;;16.80;99.90;;;;;;5064092;28;20094;-68
2022/07/05 00:48:59;;;;;;;6.95;4.40;;;16.70;99.90;;;;;;5047946;28;20082;-67
2022/07/05 00:51:25;;;;;;;6.65;4.57;;;16.70;99.90;;;;;;5081220;28;20029;-69
2022/07/05 00:53:51;;;;;;;8.07;4.72;;;16.70;99.90;;;;;;5081448;28;20057;-67
2022/07/05 00:56:22;;;;;;;7.38;4.82;;;16.70;99.90;;;;;;5082324;28;20090;-67
2022/07/05 00:58:48;;;;;;;8.40;5.22;;;16.80;99.90;;;;;;5082228;28;20107;-67
2022/07/05 01:01:16;;;;;;;6.55;4.57;;;16.70;99.90;;;;;;5064208;28;20063;-69
2022/07/05 01:03:42;;;;;;;6.13;4.45;;;16.50;99.90;;;;;;5081877;28;20063;-68
2022/07/05 01:06:10;;;;;;;7.53;4.85;;;16.40;99.90;;;;;;5081673;28;20033;-68
2022/07/05 01:08:38;;;;;;;6.03;4.60;;;16.40;99.90;;;;;;5082259;28;20067;-69
2022/07/05 01:11:05;;;;;;;8.88;5.22;;;16.20;99.90;;;;;;5064469;28;20035;-68
2022/07/05 01:13:31;;;;;;;8.02;4.72;;;16.20;99.90;;;;;;5081649;28;20028;-68
2022/07/05 01:15:58;;;;;;;6.63;4.70;;;16.20;99.90;;;;;;5080987;28;20380;-69
2022/07/05 01:18:25;;;;;;;9.18;5.25;;;16.20;99.90;;;;;;5063642;28;20040;-68
2022/07/05 01:20:51;;;;;;;5.75;4.70;;;16.30;99.90;;;;;;5081989;28;20098;-70
2022/07/05 01:23:21;;;;;;;6.25;4.28;;;16.30;99.90;;;;;;5081703;28;20056;-68
2022/07/05 01:25:47;;;;;;;8.40;4.82;;;16.30;99.90;;;;;;5064170;28;20025;-68
2022/07/05 01:28:14;;;;;;;6.22;4.30;;;16.20;99.90;;;;;;5081811;28;20040;-67
2022/07/05 01:30:42;;;;;;;9.80;4.75;;;16.20;99.90;;;;;;5081491;28;20036;-68
2022/07/05 01:33:09;;;;;;;8.95;4.18;;;16.30;99.90;;;;;;5081868;28;20043;-68
2022/07/05 01:35:36;;;;;;;8.57;4.60;;;16.20;99.90;;;;;;5063927;28;20403;-68
2022/07/05 01:38:01;;;;;;;8.20;4.28;;;16.20;99.90;;;;;;5081205;28;20059;-69
2022/07/05 01:40:28;;;;;;;5.75;4.00;;;16.20;99.90;;;;;;5047359;28;20021;-68
2022/07/05 01:42:54;;;;;;;7.75;4.20;;;16.30;99.90;;;;;;5063683;28;20048;-69
2022/07/05 01:48:11;;;;;;;6.68;4.10;;;16.20;99.90;;;;;;5080738;28;20384;-68
2022/07/05 01:50:57;;;;;;;8.30;3.50;;;16.20;99.90;;;;;;5081042;28;20353;-68
2022/07/05 01:53:30;;;;;;;6.15;3.35;;;16.20;99.90;;;;;;5063655;28;20124;-67
2022/07/05 01:56:01;;;;;;;5.13;3.70;;;16.10;99.90;;;;;;5046165;28;20032;-68
2022/07/05 01:58:29;;;;;;;7.80;3.72;;;16.00;99.90;;;;;;5062565;28;20036;-68
2022/07/05 02:00:56;;;;;;;6.95;3.50;;;15.90;99.90;;;;;;5062567;28;20029;-68
2022/07/05 02:03:25;;;;;;;5.82;3.70;;;15.90;99.90;;;;;;5080417;28;20082;-69
2022/07/05 02:05:52;;;;;;;6.28;3.35;;;15.90;99.90;;;;;;5062491;28;20059;-68
2022/07/05 02:08:20;;;;;;;9.20;3.55;;;15.90;99.90;;;;;;5062108;28;20039;-68
2022/07/05 02:10:46;;;;;;;6.45;3.63;;;15.90;99.90;;;;;;5062046;28;20051;-68
2022/07/05 02:13:12;;;;;;;6.15;3.70;;;16.00;99.90;;;;;;5079145;28;20040;-68
2022/07/05 02:15:41;;;;;;;9.35;3.97;;;16.00;99.90;;;;;;5045385;28;20415;-68
2022/07/05 02:18:08;;;;;;;7.10;4.45;;;16.00;99.90;;;;;;5062610;28;20036;-69
2022/07/05 02:20:38;;;;;;;5.47;4.97;;;16.00;99.90;;;;;;5080451;28;20028;-69
2022/07/05 02:23:05;;;;;;;7.40;4.20;;;16.00;99.90;;;;;;5063076;28;20303;-69
2022/07/05 02:25:31;;;;;;;8.27;5.22;;;15.90;99.90;;;;;;5062792;28;20298;-70
2022/07/05 02:28:01;;;;;;;8.23;5.78;;;16.00;99.90;;;;;;5062668;28;20101;-68
2022/07/05 02:30:27;;;;;;;10.40;6.50;;;16.00;99.90;;;;;;5062976;28;20046;-68
2022/07/05 02:32:54;;;;;;;6.55;5.88;;;15.90;99.90;;;;;;5062671;28;20100;-68
2022/07/05 02:35:20;;;;;;;10.68;7.30;;;15.90;99.90;;;;;;5062912;28;20056;-69
2022/07/05 02:37:47;;;;;;;10.68;7.45;;;15.80;99.90;;;;;;5063029;28;20037;-70
2022/07/05 02:40:13;;;;;;;9.35;6.30;;;15.80;99.90;;;;;;5080715;28;20036;-68
2022/07/05 02:42:44;;;;;;;7.50;5.80;;;15.80;99.90;;;;;;5063176;28;20312;-69
2022/07/05 02:45:13;;;;;;;9.88;6.90;;;15.90;99.90;;;;;;5062680;28;20150;-68
2022/07/05 02:47:40;;;;;;;9.07;7.30;;;15.80;99.90;;;;;;5062363;28;20044;-69
2022/07/05 02:50:11;;;;;;;10.05;8.00;;;15.80;99.90;;;;;;5079420;28;20032;-68
2022/07/05 02:52:42;;;;;;;8.02;7.20;;;15.80;99.90;;;;;;5062372;28;20122;-69
2022/07/05 02:55:09;;;;;;;9.80;8.07;;;15.80;99.90;;;;;;5062144;28;20032;-69
2022/07/05 02:57:38;;;;;;;9.88;8.30;;;15.70;99.90;;;;;;5061860;28;20079;-69
2022/07/05 03:00:06;;;;;;;11.90;8.10;;;15.60;99.90;;;;;;5061436;28;20035;-69
2022/07/05 03:02:39;;;;;;;9.75;7.68;;;15.60;99.90;;;;;;5079150;28;20029;-68
2022/07/05 03:05:07;;;;;;;9.30;7.82;;;15.60;99.90;;;;;;5061177;28;20029;-68
2022/07/05 03:07:32;;;;;;;12.50;7.93;;;15.60;99.90;;;;;;5061576;28;20089;-68
2022/07/05 03:09:59;;;;;;;7.60;6.90;;;15.70;99.90;;;;;;5079340;28;20032;-69
2022/07/05 03:12:26;;;;;;;7.47;6.68;;;15.70;99.90;;;;;;5079134;28;20029;-67
2022/07/05 03:14:52;;;;;;;10.98;7.38;;;15.60;99.90;;;;;;5079177;28;20048;-68
2022/07/05 03:17:20;;;;;;;10.00;7.32;;;15.60;99.90;;;;;;5060785;28;20123;-68
2022/07/05 03:19:47;;;;;;;10.18;6.80;;;15.50;99.90;;;;;;5061218;28;20025;-69
2022/07/05 03:22:14;;;;;;;7.25;5.93;;;15.40;99.90;;;;;;5044789;28;20094;-67
2022/07/05 03:24:41;;;;;;;10.90;6.10;;;15.30;99.90;;;;;;5045235;28;20020;-68
2022/07/05 03:27:07;;;;;;;10.77;7.70;;;15.30;99.90;;;;;;5077322;28;20080;-69
2022/07/05 03:29:34;;;;;;;12.23;6.35;;;15.30;99.90;;;;;;5043784;28;20033;-68
2022/07/05 03:32:00;;;;;;;10.77;6.43;;;15.20;99.90;;;;;;5060755;28;20354;-69
2022/07/05 03:34:28;;;;;;;9.25;6.22;;;15.10;99.90;;;;;;5060499;28;20036;-68
2022/07/05 03:36:57;;;;;;;7.78;6.03;;;15.10;99.90;;;;;;5044450;28;20048;-68
2022/07/05 03:39:23;;;;;;;10.93;6.50;;;15.20;99.90;;;;;;5078244;28;20040;-67
2022/07/05 03:41:48;;;;;;;8.23;6.20;;;15.20;99.90;;;;;;5065577;28;20277;-68
2022/07/05 03:44:19;;;;;;;9.75;6.25;;;15.30;99.90;;;;;;5065152;28;20029;-69
2022/07/05 03:46:45;;;;;;;12.63;5.97;;;15.30;99.90;;;;;;5082180;28;20346;-68
2022/07/05 03:49:10;;;;;;;10.18;6.40;;;15.30;99.90;;;;;;5081680;28;20351;-68
2022/07/05 03:51:36;;;;;;;9.95;6.38;;;15.30;99.90;;;;;;5031535;28;20041;-67
2022/07/05 03:54:03;;;;;;;10.02;6.22;;;15.30;99.90;;;;;;5063881;28;20029;-68
2022/07/05 03:56:30;;;;;;;8.40;6.93;;;15.40;99.90;;;;;;5065083;28;20036;-69
2022/07/05 03:59:00;;;;;;;11.43;8.25;;;15.40;99.90;;;;;;5048013;28;20127;-69
2022/07/05 04:01:26;;;;;;;13.38;8.25;;;15.50;99.90;;;;;;5064430;28;20424;-69
2022/07/05 04:03:53;;;;;;;12.32;7.40;;;15.60;99.90;;;;;;5064723;28;20035;-68
2022/07/05 04:06:20;;;;;;;9.90;7.43;;;15.60;99.90;;;;;;5064397;28;20404;-68
2022/07/05 04:08:46;;;;;;;12.13;8.63;;;15.60;99.90;;;;;;5048150;28;20051;-68
2022/07/05 04:11:13;;;;;;;8.68;7.88;;;15.60;99.90;;;;;;5064505;28;20039;-68
2022/07/05 04:13:41;;;;;;;11.98;9.05;;;15.70;99.90;;;;;;5081303;28;20086;-68
2022/07/05 04:16:07;;;;;;;11.23;6.78;;;15.50;99.90;;;;;;5063625;28;20036;-67
2022/07/05 04:18:33;;;;;;;9.98;7.38;;;15.50;99.90;;;;;;5063933;28;20060;-69
2022/07/05 04:20:59;;;;;;;8.70;7.32;;;15.50;99.90;;;;;;5082232;28;20060;-68
2022/07/05 04:23:25;;;;;;;11.35;7.68;;;15.60;99.90;;;;;;5064907;28;20048;-69
2022/07/05 04:25:51;;;;;;;11.35;7.47;;;15.80;99.90;;;;;;5081733;28;20048;-67
2022/07/05 04:28:26;;;;;;;9.05;6.82;;;15.60;99.90;;;;;;5081989;28;20129;-68
2022/07/05 04:30:54;;;;;;;12.77;7.10;;;15.40;99.90;;;;;;5064276;28;20041;-68
2022/07/05 04:33:23;;;;;;;10.75;7.45;;;15.50;99.90;;;;;;5064635;28;20039;-69
2022/07/05 04:35:52;;;;;;;10.52;7.95;;;15.60;99.90;;;;;;5064557;28;20105;-67
2022/07/05 04:38:18;;;;;;;11.48;8.38;;;15.60;99.90;;;;;;5064222;28;20028;-67
2022/07/05 04:40:45;;;;;;;10.55;7.40;;;15.50;99.90;;;;;;5064276;28;20020;-68
2022/07/05 04:43:12;;;;;;;9.77;7.93;;;15.60;99.90;;;;;;5063791;28;20148;-69
2022/07/05 04:45:37;;;;;;;9.70;7.60;;;15.60;99.90;;;;;;5063920;28;20048;-68
2022/07/05 04:48:04;;;;;;;10.07;7.65;;;15.60;99.90;;;;;;5063997;28;20087;-68
2022/07/05 04:50:32;;;;;;;11.57;7.20;;;15.40;99.90;;;;;;5081528;28;20062;-68
2022/07/05 04:52:58;;;;;;;9.90;7.22;;;15.40;99.90;;;;;;5081695;28;20095;-69
2022/07/05 04:55:24;;;;;;;7.53;6.80;;;15.50;99.90;;;;;;5081739;28;20036;-70
2022/07/05 04:57:50;;;;;;;8.07;7.05;;;15.60;99.90;;;;;;5063778;28;20029;-67
2022/07/05 05:00:16;;;;;;;10.63;7.13;;;15.40;99.90;;;;;;5080732;28;20028;-67
2022/07/05 05:02:41;;;;;;;9.23;6.80;;;15.30;99.90;;;;;;5063432;28;20040;-69
2022/07/05 05:05:08;;;;;;;10.10;6.10;;;15.30;99.90;;;;;;5063448;28;20113;-67
2022/07/05 05:07:35;;;;;;;8.27;6.13;;;15.50;99.90;;;;;;5046067;28;20119;-68
2022/07/05 05:10:01;;;;;;;8.27;6.28;;;15.50;99.90;;;;;;5080133;28;20033;-68
2022/07/05 05:12:26;;;;;;;8.60;5.68;;;15.80;99.90;;;;;;5079667;28;20098;-68
2022/07/05 05:14:52;;;;;;;7.30;5.57;;;16.00;99.90;;;;;;5080206;28;20040;-68
2022/07/05 05:17:18;;;;;;;7.55;6.05;;;16.10;99.90;;;;;;5079438;28;20059;-66
2022/07/05 05:19:44;;;;;;;10.73;5.38;;;16.30;99.90;;;;;;5079780;28;20043;-67
2022/07/05 05:22:11;;;;;;;9.73;5.55;;;16.40;99.90;;;;;;5062555;28;20091;-69
2022/07/05 05:24:37;;;;;;;8.25;5.50;;;16.50;99.90;;;;;;5063345;28;20071;-68
2022/07/05 05:27:03;;;;;;;11.10;5.03;;;16.70;99.90;;;;;;5062262;28;20060;-67
2022/07/05 05:29:29;;;;;;;9.25;5.40;;;16.60;99.90;;;;;;5080230;28;20056;-67
2022/07/05 05:31:55;;;;;;;8.85;5.45;;;16.60;99.90;;;;;;5061996;28;20024;-69
2022/07/05 05:34:21;;;;;;;8.68;5.13;;;16.50;99.90;;;;;;5062391;28;20039;-60
2022/07/05 05:36:47;;;;;;;9.68;5.70;;;16.60;99.90;;;;;;5079578;28;20020;-68
2022/07/05 05:39:13;;;;;;;6.65;5.10;;;16.60;99.90;;;;;;5061343;28;20036;-65
2022/07/05 05:41:39;;;;;;;8.48;4.93;;;16.30;99.90;;;;;;5062844;28;20029;-67
2022/07/05 05:44:05;;;;;;;9.05;5.45;;;16.50;99.90;;;;;;5079871;28;20033;-67
2022/07/05 05:46:31;;;;;;;8.75;5.07;;;16.70;99.90;;;;;;5079781;28;20274;-68
2022/07/05 05:48:58;;;;;;;10.55;5.72;;;16.90;99.90;;;;;;5062015;28;20127;-66
2022/07/05 05:51:24;;;;;;;10.15;5.60;;;17.20;99.90;;;;;;5045200;28;20396;-67
2022/07/05 05:53:50;;;;;;;9.20;5.80;;;17.20;99.90;;;;;;5079389;28;20028;-66
2022/07/05 05:56:16;;;;;;;11.57;6.18;;;17.20;99.90;;;;;;5079145;28;20444;-69
2022/07/05 05:58:42;;;;;;;11.25;5.43;;;17.20;99.90;;;;;;5078558;28;20043;-65
2022/07/05 06:01:08;;;;;;;11.68;6.75;;;17.10;99.90;;;;;;5078273;28;20039;-66
2022/07/05 06:03:33;;;;;;;8.25;5.15;;;16.70;99.90;;;;;;5077904;28;20031;-66
2022/07/05 06:05:59;;;;;;;9.18;5.35;;;16.50;99.90;;;;;;5061075;28;20082;-66
2022/07/05 06:08:25;;;;;;;11.05;5.82;;;16.60;99.90;;;;;;5078327;28;20047;-64
2022/07/05 06:10:51;;;;;;;12.50;6.35;;;16.70;99.90;;;;;;5060313;28;20058;-66
2022/07/05 06:13:17;;;;;;;10.43;5.75;;;16.60;99.90;;;;;;5078364;28;20082;-68
2022/07/05 06:15:43;;;;;;;13.25;7.10;;;16.50;99.90;;;;;;5077274;28;20034;-65
2022/07/05 06:18:11;;;;;;;8.93;5.65;;;16.60;99.90;;;;;;5077430;28;20041;-66
2022/07/05 06:20:38;;;;;;;11.32;6.18;;;16.70;99.90;;;;;;5077958;28;20031;-66
2022/07/05 06:23:05;;;;;;;12.48;7.43;;;16.60;99.90;;;;;;5060306;28;20089;-65
2022/07/05 06:25:32;;;;;;;8.35;6.63;;;16.30;99.90;;;;;;5077815;28;20029;-66
2022/07/05 06:28:01;;;;;;;8.25;7.05;;;16.30;99.90;;;;;;5077312;28;20128;-64
2022/07/05 06:30:29;;;;;;;14.52;7.32;;;16.30;99.90;;;;;;5078304;28;20036;-66
2022/07/05 06:32:56;;;;;;;12.20;8.13;;;16.50;99.90;;;;;;5077552;28;20051;-65
2022/07/05 06:35:22;;;;;;;11.65;6.90;;;16.50;99.90;;;;;;5078137;28;20028;-65
2022/07/05 06:37:58;;;;;;;11.88;7.93;;;16.70;99.90;;;;;;5060329;28;20055;-66
2022/07/05 06:40:26;;;;;;;16.38;10.80;;;16.80;99.90;;;;;;5060281;28;20141;-64
2022/07/05 06:42:53;;;;;;;11.85;8.70;;;17.00;99.90;;;;;;5078065;28;20082;-65
2022/07/05 06:45:24;;;;;;;14.25;9.25;;;17.20;99.90;;;;;;5060455;28;20419;-66
2022/07/05 06:48:03;;;;;;;17.92;8.55;;;17.30;99.90;;;;;;5077066;28;20101;-66
2022/07/05 06:50:30;;;;;;;16.08;8.80;;;17.30;99.90;;;;;;5077841;28;20028;-64
2022/07/05 06:52:56;;;;;;;14.18;7.07;;;17.20;99.90;;;;;;5077090;28;20090;-63
2022/07/05 06:55:23;;;;;;;11.90;6.57;;;17.50;99.90;;;;;;5059502;28;20028;-61
2022/07/05 06:57:49;;;;;;;10.05;6.55;;;17.80;99.90;;;;;;5059085;28;20051;-64
2022/07/05 07:00:15;;;;;;;15.10;8.18;;;18.10;99.90;;;;;;5076814;28;20028;-66
2022/07/05 07:02:41;;;;;;;13.85;7.50;;;17.90;99.90;;;;;;5077027;28;20094;-66
2022/07/05 07:05:08;;;;;;;16.13;6.93;;;17.80;99.90;;;;;;5043071;28;20311;-66
2022/07/05 07:10:19;;;;;;;17.33;7.07;;;18.40;99.90;;;;;;5059202;28;20036;-67
2022/07/05 07:12:44;;;;;;;13.00;7.50;;;19.00;99.90;;;;;;5077221;28;20028;-69
2022/07/05 07:15:10;;;;;;;13.50;7.85;;;19.40;99.90;;;;;;5061602;28;20040;-69
2022/07/05 07:17:36;;;;;;;14.90;8.85;;;19.50;99.90;;;;;;5063225;28;20121;-69
2022/07/05 07:20:03;;;;;;;16.65;8.77;;;19.80;99.90;;;;;;5081311;28;20017;-66
2022/07/05 07:22:29;;;;;;;12.43;7.18;;;19.70;99.90;;;;;;5081316;28;20399;-68
2022/07/05 07:24:55;;;;;;;9.43;6.32;;;19.70;99.90;;;;;;5081164;28;20118;-66
2022/07/05 07:27:20;;;;;;;11.43;6.07;;;19.60;99.90;;;;;;5062658;28;20048;-64
2022/07/05 07:29:46;;;;;;;14.40;6.60;;;19.10;99.90;;;;;;5063083;28;20311;-65
2022/07/05 07:32:12;;;;;;;17.08;7.72;;;18.70;99.90;;;;;;5080557;28;20304;-64
2022/07/05 07:34:39;;;;;;;16.13;7.20;;;18.40;99.90;;;;;;5080356;28;20064;-65
2022/07/05 07:37:05;;;;;;;12.82;7.45;;;18.40;99.90;;;;;;5080870;28;20025;-69
2022/07/05 07:39:31;;;;;;;22.80;7.80;;;18.90;99.90;;;;;;5081024;28;20029;-70
2022/07/05 07:41:58;;;;;;;19.42;8.75;;;19.60;99.90;;;;;;5063923;28;20020;-70
2022/07/05 07:44:24;;;;;;;15.98;6.47;;;19.80;99.90;;;;;;5081747;28;20041;-71
2022/07/05 07:46:50;;;;;;;14.63;6.55;;;20.20;99.90;;;;;;5082084;28;20051;-69
2022/07/05 07:49:16;;;;;;;13.50;6.15;;;20.50;99.90;;;;;;5064275;28;20075;-70
2022/07/05 07:51:42;;;;;;;13.05;6.15;;;20.80;99.90;;;;;;5080360;28;20039;-67
2022/07/05 07:54:08;;;;;;;11.57;5.43;;;19.90;99.90;;;;;;5062677;28;20036;-67
2022/07/05 07:56:34;;;;;;;16.02;6.63;;;19.30;99.90;;;;;;5046466;28;20093;-67
2022/07/05 07:59:00;;;;;;;11.88;4.90;;;19.10;99.90;;;;;;5063456;28;20349;-70
2022/07/05 08:01:25;;;;;;;10.07;6.07;;;19.40;99.90;;;;;;5062857;28;20020;-65
2022/07/05 08:03:51;;;;;;;11.80;6.00;;;19.30;99.90;;;;;;5063268;28;20339;-64
2022/07/05 08:06:17;;;;;;;8.45;3.67;;;19.00;99.90;;;;;;5062423;28;20058;-66
2022/07/05 08:08:44;;;;;;;13.23;5.78;;;19.00;99.90;;;;;;5062849;28;20038;-67
2022/07/05 08:11:11;;;;;;;15.63;6.13;;;19.30;99.90;;;;;;5063188;28;20064;-66
2022/07/05 08:13:39;;;;;;;12.27;5.07;;;19.40;99.90;;;;;;5079702;28;20285;-64
2022/07/05 08:16:05;;;;;;;11.05;4.93;;;19.40;99.90;;;;;;5062072;28;20043;-66
2022/07/05 08:24:02;;;;;;;11.43;4.25;;;20.10;99.90;;;;;;5079762;28;20086;-67
2022/07/05 08:26:30;;;;;;;7.28;2.97;;;20.50;99.90;;;;;;5078908;28;20048;-68
2022/07/05 08:28:58;;;;;;;11.68;3.78;;;21.20;99.90;;;;;;5062159;28;20032;-65
2022/07/05 08:31:25;;;;;;;11.95;3.35;;;21.10;99.90;;;;;;5079927;28;20029;-66
2022/07/05 08:33:51;;;;;;;10.70;2.97;;;21.20;99.90;;;;;;5080932;28;20103;-66
2022/07/05 08:36:17;;;;;;;8.73;3.58;;;21.30;99.90;;;;;;5080916;28;20052;-68
2022/07/05 08:38:42;;;;;;;9.70;3.45;;;21.30;99.90;;;;;;5063744;28;20099;-69
2022/07/05 08:41:10;;;;;;;8.70;3.15;;;21.10;99.90;;;;;;5080744;28;20112;-68
2022/07/05 08:43:41;;;;;;;7.97;3.10;;;20.90;99.90;;;;;;5080016;28;20036;-71
2022/07/05 08:46:10;;;;;;;8.35;3.25;;;20.80;99.90;;;;;;5079501;28;20031;-65
2022/07/05 08:48:44;;;;;;;6.32;2.80;;;20.70;99.90;;;;;;5062311;28;20048;-63
2022/07/05 08:51:23;;;;;;;6.90;2.63;;;20.80;99.90;;;;;;5080111;28;20036;-66
2022/07/05 08:53:51;;;;;;;7.90;3.13;;;21.20;99.90;;;;;;5080950;28;20388;-67
2022/07/05 08:56:18;;;;;;;5.55;2.42;;;21.80;99.90;;;;;;5079592;28;20036;-67
2022/07/05 08:58:44;;;;;;;5.03;2.20;;;21.90;99.90;;;;;;5080134;28;20044;-64
2022/07/05 09:01:11;;;;;;;10.43;3.05;;;22.20;99.90;;;;;;5080508;28;20028;-67
2022/07/05 09:04:05;;;;;;;12.25;3.05;;;22.60;99.90;;;;;;5062690;28;20024;-66
2022/07/05 09:06:34;;;;;;;5.85;2.20;;;22.60;99.90;;;;;;5076957;28;20040;-71
2022/07/05 09:09:01;;;;;;;11.95;3.17;;;22.70;99.90;;;;;;5080068;28;20083;-66
2022/07/05 09:11:42;;;;;;;21.63;4.32;;;23.20;99.90;;;;;;5079026;28;20404;-67
2022/07/05 09:14:34;;;;;;;10.98;2.42;;;23.70;99.90;;;;;;5079705;28;20293;-67
2022/07/05 09:17:01;;;;;;;5.93;2.03;;;23.60;99.90;;;;;;5075982;28;20044;-68
2022/07/05 09:19:28;;;;;;;5.25;2.42;;;23.70;99.90;;;;;;5078936;28;20308;-69
2022/07/05 09:22:02;;;;;;;5.95;1.77;;;23.90;99.90;;;;;;5061879;28;20355;-66
2022/07/05 09:24:30;;;;;;;6.35;2.45;;;23.80;99.90;;;;;;5078239;28;20081;-63
2022/07/05 09:27:03;;;;;;;7.18;2.30;;;22.40;99.90;;;;;;5078006;28;20064;-67
2022/07/05 09:29:29;;;;;;;5.90;1.75;;;22.40;99.90;;;;;;5061470;28;20205;-66
2022/07/05 09:31:55;;;;;;;4.32;1.50;;;22.50;99.90;;;;;;5061546;28;20052;-65
2022/07/05 09:34:24;;;;;;;4.65;1.40;;;22.80;99.90;;;;;;5078833;28;20043;-68
2022/07/05 09:36:54;;;;;;;2.95;1.38;;;23.40;99.90;;;;;;5078613;28;20033;-66
2022/07/05 09:39:31;;;;;;;5.32;1.95;;;24.10;99.90;;;;;;5077588;28;20116;-65
2022/07/05 09:42:12;;;;;;;4.88;1.70;;;23.50;99.90;;;;;;5077795;28;20017;-64
2022/07/05 09:44:43;;;;;;;5.70;1.40;;;22.50;99.90;;;;;;5078298;28;20041;-65
2022/07/05 09:47:14;;;;;;;4.25;1.40;;;22.30;99.90;;;;;;5077670;28;20036;-64
2022/07/05 09:49:51;;;;;;;5.10;1.17;;;23.10;99.90;;;;;;5077650;28;20082;-64
2022/07/05 09:52:36;;;;;;;4.40;1.58;;;23.30;99.90;;;;;;5077772;28;20289;-67
2022/07/05 09:55:07;;;;;;;3.50;1.27;;;23.70;99.90;;;;;;5078202;28;20032;-70
2022/07/05 09:57:35;;;;;;;6.85;1.70;;;24.20;99.90;;;;;;5061407;28;20032;-66
2022/07/05 10:00:03;;;;;;;3.83;1.40;;;23.80;99.90;;;;;;5078878;28;20082;-68
2022/07/05 10:02:40;;;;;;;6.93;1.50;;;23.90;99.90;;;;;;5079494;28;20124;-69
2022/07/05 10:05:17;;;;;;;3.80;1.33;;;24.20;99.90;;;;;;5062176;28;20369;-67
2022/07/05 10:08:00;;;;;;;3.83;1.65;;;24.00;99.90;;;;;;5060827;28;20036;-68
2022/07/05 10:10:35;;;;;;;6.47;2.13;;;24.10;99.90;;;;;;5077393;28;20044;-68
2022/07/05 10:13:06;;;;;;;6.38;1.80;;;24.10;99.90;;;;;;5078224;28;20032;-67
2022/07/05 10:15:34;;;;;;;7.63;2.50;;;23.80;99.90;;;;;;5079233;28;20044;-66
2022/07/05 10:18:04;;;;;;;11.75;3.25;;;24.10;99.90;;;;;;5060155;28;20343;-68
2022/07/05 10:20:46;;;;;;;8.63;2.90;;;24.10;99.90;;;;;;5078535;28;20039;-69
2022/07/05 10:23:17;;;;;;;7.80;2.60;;;24.40;99.90;;;;;;5077844;28;20119;-67
2022/07/05 10:25:49;;;;;;;4.32;2.15;;;24.70;99.90;;;;;;5061527;28;20020;-69
2022/07/05 10:28:16;;;;;;;8.37;2.90;;;24.60;99.90;;;;;;5079349;28;20032;-66
2022/07/05 10:30:45;;;;;;;4.93;2.30;;;24.90;99.90;;;;;;5061377;28;20395;-69
2022/07/05 10:33:14;;;;;;;8.48;2.28;;;25.00;99.90;;;;;;5078961;28;20028;-68
2022/07/05 10:35:43;;;;;;;5.03;1.98;;;25.00;99.90;;;;;;5061541;28;20029;-71
2022/07/05 10:38:10;;;;;;;4.63;1.90;;;25.20;99.90;;;;;;5061743;28;20037;-67
2022/07/05 10:40:36;;;;;;;3.40;1.70;;;25.30;99.90;;;;;;5061824;28;20039;-68
2022/07/05 10:43:04;;;;;;;6.40;1.98;;;25.40;99.90;;;;;;5060644;28;20024;-68
2022/07/05 10:45:39;;;;;;;4.53;1.70;;;25.50;99.90;;;;;;5078643;28;20029;-70
2022/07/05 10:48:17;;;;;;;4.05;1.50;;;25.40;99.90;;;;;;5079032;28;20407;-69
2022/07/05 10:50:48;;;;;;;3.67;1.63;;;25.10;99.90;;;;;;5061713;28;20037;-70
2022/07/05 10:53:30;;;;;;;7.35;2.00;;;25.20;99.90;;;;;;5078919;28;20036;-67
2022/07/05 10:56:05;;;;;;;6.68;2.20;;;25.20;99.90;;;;;;5060998;28;20070;-69
2022/07/05 10:58:47;;;;;;;6.43;2.60;;;25.30;99.90;;;;;;5077854;28;20040;-70
2022/07/05 11:01:32;;;;;;;4.00;2.40;;;25.30;99.90;;;;;;5078088;28;20115;-70
2022/07/05 11:04:00;;;;;;;5.85;2.50;;;25.40;99.90;;;;;;5043680;28;20025;-63
2022/07/05 11:06:28;;;;;;;3.35;1.60;;;25.00;99.90;;;;;;5077416;28;20051;-68
2022/07/05 11:08:57;;;;;;;7.40;2.60;;;24.30;99.90;;;;;;5060012;28;20024;-68
2022/07/05 11:11:37;;;;;;;9.98;3.00;;;24.40;99.90;;;;;;5077492;28;20024;-65
2022/07/05 11:14:04;;;;;;;4.78;2.35;;;24.40;99.90;;;;;;5077503;28;20296;-66
2022/07/05 11:16:35;;;;;;;4.88;2.63;;;24.10;99.90;;;;;;5077510;28;20025;-69
2022/07/05 11:19:19;;;;;;;4.53;2.58;;;23.90;99.90;;;;;;5077093;28;20036;-67
2022/07/05 11:22:07;;;;;;;6.13;2.28;;;23.70;99.90;;;;;;5060104;28;20039;-66
2022/07/05 11:24:40;;;;;;;5.30;2.47;;;23.40;99.90;;;;;;5078187;28;20028;-68
2022/07/05 11:27:13;;;;;;;4.28;1.80;;;23.40;99.90;;;;;;5077045;28;20056;-69
2022/07/05 11:29:50;;;;;;;2.55;1.55;;;23.70;99.90;;;;;;5060229;28;20041;-70
2022/07/05 11:32:18;;;;;;;3.63;1.58;;;24.00;99.90;;;;;;5078092;28;20029;-69
2022/07/05 11:34:55;;;;;;;4.75;1.40;;;24.40;99.90;;;;;;5062537;28;20033;-65
2022/07/05 11:37:34;;;;;;;3.42;1.20;;;25.10;99.90;;;;;;5059397;28;20093;-68
2022/07/05 11:40:11;;;;;;;2.75;1.42;;;25.20;99.90;;;;;;5060755;28;20028;-69
2022/07/05 11:42:48;;;;;;;3.15;1.10;;;25.60;99.90;;;;;;5077765;28;20088;-69
2022/07/05 11:45:14;;;;;;;5.50;1.30;;;27.60;99.90;;;;;;5077048;28;20303;-67
2022/07/05 11:47:41;;;;;;;2.97;1.30;;;28.30;99.90;;;;;;5077999;28;20032;-69
2022/07/05 11:50:07;;;;;;;3.35;1.30;;;28.80;99.90;;;;;;5077930;28;20127;-69
2022/07/05 11:52:34;;;;;;;3.13;1.00;;;29.90;99.90;;;;;;5077107;28;20032;-70
2022/07/05 11:55:04;;;;;;;2.72;0.93;;;31.00;99.90;;;;;;5077315;28;20086;-69
2022/07/05 11:57:30;;;;;;;4.18;0.80;;;31.60;99.90;;;;;;5076833;28;20040;-69
2022/07/05 11:59:56;;;;;;;3.53;0.98;;;30.70;99.40;;;;;;5076930;28;20025;-67
2022/07/05 12:02:22;;;;;;;2.50;0.60;;;31.10;97.70;;;;;;5080682;28;20048;-69
2022/07/05 12:04:52;;;;;;;2.40;1.15;;;31.50;97.20;;;;;;5080423;28;20060;-69
2022/07/05 12:07:31;;;;;;;2.70;0.95;;;30.20;97.30;;;;;;5062687;28;20021;-68
2022/07/05 12:12:44;;;;;;;4.18;0.93;;;30.20;97.30;;;;;;5080573;28;20056;-68
2022/07/05 12:15:09;;;;;;;3.88;0.80;;;30.90;96.40;;;;;;5081556;28;20024;-67
2022/07/05 12:17:37;;;;;;;3.92;0.80;;;30.80;96.30;;;;;;5080665;28;20032;-70
2022/07/05 12:20:05;;;;;;;3.90;1.00;;;30.60;96.40;;;;;;5080664;28;20392;-71
2022/07/05 12:22:38;;;;;;;4.05;0.85;;;30.30;96.40;;;;;;5079883;28;20028;-67
2022/07/05 12:25:06;;;;;;;3.45;0.95;;;29.80;97.10;;;;;;5080434;28;20021;-68
2022/07/05 12:27:35;;;;;;;2.65;1.10;;;29.50;98.10;;;;;;5079885;28;20304;-68
2022/07/05 12:30:03;;;;;;;3.40;0.98;;;30.30;95.90;;;;;;5079730;28;20414;-68
2022/07/05 12:32:30;;;;;;;3.10;0.95;;;29.40;96.60;;;;;;5079778;28;20044;-64
2022/07/05 12:34:56;;;;;;;4.60;1.08;;;28.40;98.30;;;;;;5079560;28;20386;-66
2022/07/05 12:37:23;;;;;;;3.05;1.00;;;27.80;99.70;;;;;;5079321;28;20327;-64
2022/07/05 12:40:01;;;;;;;3.90;0.80;;;28.00;98.90;;;;;;5079348;28;20017;-65
2022/07/05 12:42:34;;;;;;;4.13;0.82;;;28.30;98.80;;;;;;5079435;28;20304;-64
2022/07/05 12:45:18;;;;;;;5.15;1.00;;;27.90;99.20;;;;;;5061934;28;20028;-68
2022/07/05 12:47:53;;;;;;;3.92;0.90;;;27.90;99.00;;;;;;5061786;28;20035;-66
2022/07/05 12:50:20;;;;;;;3.38;0.93;;;29.00;98.60;;;;;;5079040;28;20028;-67
2022/07/05 12:58:01;;;;;;;3.10;0.88;;;30.50;95.60;;;;;;5061595;28;20025;-67
2022/07/05 12:59:02;;;;;;;2.28;0.80;;;31.90;93.60;;;;;;5061178;28;20285;-67
2022/07/05 13:01:29;;;;;;;3.03;0.80;;;32.40;91.30;;;;;;5078972;28;20086;-66
2022/07/05 13:04:08;;;;;;;2.03;0.73;;;32.20;90.10;;;;;;5078948;28;20035;-67
2022/07/05 13:06:54;;;;;;;4.20;0.90;;;32.50;90.20;;;;;;5078701;28;20028;-67
2022/07/05 13:09:31;;;;;;;2.60;0.80;;;33.90;87.60;;;;;;5078802;28;20120;-67